createdAt,value
2016-11-23T00:00:47.539Z,0
2016-11-23T00:01:47.521Z,0
2016-11-23T00:02:47.507Z,0
2016-11-23T00:03:47.805Z,0
2016-11-23T00:04:47.486Z,0
2016-11-23T00:05:47.470Z,0
2016-11-23T00:06:47.448Z,0
2016-11-23T00:07:47.435Z,0
2016-11-23T00:08:47.418Z,0
2016-11-23T00:09:47.748Z,0
2016-11-23T00:10:47.428Z,0
2016-11-23T00:11:47.392Z,0
2016-11-23T00:12:47.382Z,0
2016-11-23T00:13:47.389Z,0
2016-11-23T00:14:47.339Z,0
2016-11-23T00:15:47.378Z,0
2016-11-23T00:16:47.312Z,0
2016-11-23T00:17:47.621Z,0
2016-11-23T00:18:47.281Z,0
2016-11-23T00:19:47.897Z,0
2016-11-23T00:20:47.564Z,0
2016-11-23T00:21:47.240Z,0
2016-11-23T00:22:47.229Z,0
2016-11-23T00:23:47.526Z,0
2016-11-23T00:24:47.228Z,0
2016-11-23T00:25:47.180Z,0
2016-11-23T00:26:47.172Z,0
2016-11-23T00:27:47.148Z,0
2016-11-23T00:28:47.137Z,0
2016-11-23T00:29:47.435Z,0
2016-11-23T00:30:47.112Z,0
2016-11-23T00:31:47.094Z,0
2016-11-23T00:32:47.708Z,0
2016-11-23T00:33:47.374Z,0
2016-11-23T00:34:47.371Z,0
2016-11-23T00:35:47.037Z,0
2016-11-23T00:36:47.021Z,0
2016-11-23T00:37:47.011Z,0
2016-11-23T00:38:46.992Z,0
2016-11-23T00:39:47.605Z,0
2016-11-23T00:40:47.284Z,0
2016-11-23T00:41:46.952Z,0
2016-11-23T00:42:46.936Z,0
2016-11-23T00:43:46.918Z,0
2016-11-23T00:44:46.901Z,0
2016-11-23T00:45:46.897Z,0
2016-11-23T00:46:46.885Z,0
2016-11-23T00:47:46.866Z,0
2016-11-23T00:48:46.846Z,0
2016-11-23T00:49:46.885Z,0
2016-11-23T00:50:46.822Z,0
2016-11-23T00:51:47.122Z,0
2016-11-23T00:52:47.109Z,0
2016-11-23T00:53:46.783Z,0
2016-11-23T00:54:46.767Z,0
2016-11-23T00:55:46.753Z,0
2016-11-23T00:56:46.738Z,0
2016-11-23T00:57:46.724Z,0
2016-11-23T00:58:46.707Z,0
2016-11-23T00:59:46.721Z,0
2016-11-23T01:00:46.678Z,0
2016-11-23T01:01:46.979Z,0
2016-11-23T01:02:46.655Z,0
2016-11-23T01:03:46.636Z,0
2016-11-23T01:04:46.635Z,0
2016-11-23T01:05:46.927Z,0
2016-11-23T01:06:46.598Z,0
2016-11-23T01:07:46.903Z,0
2016-11-23T01:08:46.567Z,0
2016-11-23T01:09:46.548Z,0
2016-11-23T01:10:46.533Z,0
2016-11-23T01:11:46.833Z,0
2016-11-23T01:12:46.508Z,0
2016-11-23T01:13:46.495Z,0
2016-11-23T01:14:46.822Z,0
2016-11-23T01:15:46.462Z,0
2016-11-23T01:16:46.455Z,0
2016-11-23T01:17:46.435Z,0
2016-11-23T01:18:46.743Z,0
2016-11-23T01:19:46.748Z,0
2016-11-23T01:20:46.414Z,0
2016-11-23T01:21:46.741Z,0
2016-11-23T01:22:46.741Z,0
2016-11-23T01:23:46.678Z,0
2016-11-23T01:24:46.349Z,0
2016-11-23T01:25:46.335Z,0
2016-11-23T01:26:46.637Z,0
2016-11-23T01:27:46.658Z,0
2016-11-23T01:28:46.293Z,0
2016-11-23T01:29:46.271Z,0
2016-11-23T01:30:46.270Z,0
2016-11-23T01:31:46.249Z,0
2016-11-23T01:32:46.233Z,0
2016-11-23T01:33:46.245Z,0
2016-11-23T01:34:46.204Z,0
2016-11-23T01:35:46.197Z,0
2016-11-23T01:36:46.177Z,0
2016-11-23T01:37:46.167Z,0
2016-11-23T01:38:46.147Z,0
2016-11-23T01:39:46.184Z,0
2016-11-23T01:40:46.147Z,0
2016-11-23T01:41:46.135Z,0
2016-11-23T01:42:46.093Z,0
2016-11-23T01:43:46.074Z,0
2016-11-23T01:44:46.271Z,0
2016-11-23T01:45:46.039Z,0
2016-11-23T01:46:46.354Z,0
2016-11-23T01:47:46.013Z,0
2016-11-23T01:48:46.323Z,0
2016-11-23T01:49:46.336Z,0
2016-11-23T01:50:45.970Z,0
2016-11-23T01:51:45.966Z,0
2016-11-23T01:52:46.272Z,0
2016-11-23T01:53:46.247Z,0
2016-11-23T01:54:45.917Z,0
2016-11-23T01:55:46.225Z,0
2016-11-23T01:56:45.889Z,0
2016-11-23T01:57:45.872Z,0
2016-11-23T01:58:46.186Z,0
2016-11-23T01:59:45.846Z,0
2016-11-23T02:00:45.877Z,0
2016-11-23T02:01:45.818Z,0
2016-11-23T02:02:45.804Z,0
2016-11-23T02:03:46.108Z,0
2016-11-23T02:04:45.776Z,0
2016-11-23T02:05:46.073Z,0
2016-11-23T02:06:45.745Z,0
2016-11-23T02:07:45.730Z,0
2016-11-23T02:08:46.028Z,0
2016-11-23T02:09:45.702Z,0
2016-11-23T02:10:46.001Z,0
2016-11-23T02:11:45.687Z,0
2016-11-23T02:12:45.976Z,0
2016-11-23T02:13:45.643Z,0
2016-11-23T02:14:45.992Z,0
2016-11-23T02:15:45.620Z,0
2016-11-23T02:16:45.915Z,0
2016-11-23T02:17:45.591Z,0
2016-11-23T02:18:45.561Z,0
2016-11-23T02:19:45.548Z,0
2016-11-23T02:20:45.536Z,0
2016-11-23T02:21:45.842Z,0
2016-11-23T02:22:45.519Z,0
2016-11-23T02:23:45.494Z,0
2016-11-23T02:24:45.482Z,0
2016-11-23T02:25:45.474Z,0
2016-11-23T02:26:45.777Z,0
2016-11-23T02:27:45.449Z,0
2016-11-23T02:28:45.434Z,0
2016-11-23T02:29:45.404Z,0
2016-11-23T02:30:45.423Z,0
2016-11-23T02:31:45.383Z,0
2016-11-23T02:32:45.367Z,0
2016-11-23T02:33:45.374Z,0
2016-11-23T02:34:45.333Z,0
2016-11-23T02:35:45.322Z,0
2016-11-23T02:36:45.313Z,0
2016-11-23T02:37:45.606Z,0
2016-11-23T02:38:45.277Z,0
2016-11-23T02:39:45.278Z,0
2016-11-23T02:40:45.878Z,0
2016-11-23T02:41:45.550Z,0
2016-11-23T02:42:45.852Z,0
2016-11-23T02:43:45.243Z,0
2016-11-23T02:44:45.195Z,0
2016-11-23T02:45:45.182Z,0
2016-11-23T02:46:45.161Z,0
2016-11-23T02:47:45.149Z,0
2016-11-23T02:48:45.454Z,0
2016-11-23T02:49:45.432Z,0
2016-11-23T02:50:45.430Z,0
2016-11-23T02:51:45.096Z,0
2016-11-23T02:52:45.081Z,0
2016-11-23T02:53:45.066Z,0
2016-11-23T02:54:45.045Z,0
2016-11-23T02:55:45.037Z,0
2016-11-23T02:56:45.337Z,0
2016-11-23T02:57:45.008Z,0
2016-11-23T02:58:45.339Z,0
2016-11-23T02:59:44.980Z,0
2016-11-23T03:00:44.963Z,0
2016-11-23T03:01:44.950Z,0
2016-11-23T03:02:45.250Z,0
2016-11-23T03:03:44.924Z,0
2016-11-23T03:04:45.222Z,0
2016-11-23T03:05:44.895Z,0
2016-11-23T03:06:44.877Z,0
2016-11-23T03:07:44.875Z,0
2016-11-23T03:08:45.166Z,0
2016-11-23T03:09:45.155Z,0
2016-11-23T03:10:44.820Z,0
2016-11-23T03:11:44.805Z,0
2016-11-23T03:12:44.795Z,0
2016-11-23T03:13:45.153Z,0
2016-11-23T03:14:44.873Z,0
2016-11-23T03:15:44.751Z,0
2016-11-23T03:16:44.737Z,0
2016-11-23T03:17:44.750Z,0
2016-11-23T03:18:44.710Z,0
2016-11-23T03:19:45.008Z,0
2016-11-23T03:20:44.698Z,0
2016-11-23T03:21:44.657Z,0
2016-11-23T03:22:44.650Z,0
2016-11-23T03:23:44.638Z,0
2016-11-23T03:24:44.933Z,0
2016-11-23T03:25:44.611Z,0
2016-11-23T03:26:44.594Z,0
2016-11-23T03:27:44.899Z,0
2016-11-23T03:28:44.875Z,0
2016-11-23T03:29:44.865Z,0
2016-11-23T03:30:44.873Z,0
2016-11-23T03:31:44.520Z,0
2016-11-23T03:32:44.504Z,0
2016-11-23T03:33:44.510Z,0
2016-11-23T03:34:45.110Z,0
2016-11-23T03:35:44.469Z,0
2016-11-23T03:36:44.490Z,0
2016-11-23T03:37:44.442Z,0
2016-11-23T03:38:44.421Z,0
2016-11-23T03:39:44.406Z,0
2016-11-23T03:40:44.390Z,0
2016-11-23T03:41:45.017Z,0
2016-11-23T03:42:44.359Z,0
2016-11-23T03:43:44.658Z,0
2016-11-23T03:44:44.736Z,0
2016-11-23T03:45:44.315Z,0
2016-11-23T03:46:44.947Z,0
2016-11-23T03:47:44.599Z,0
2016-11-23T03:48:44.284Z,0
2016-11-23T03:49:44.572Z,0
2016-11-23T03:50:44.297Z,0
2016-11-23T03:51:44.230Z,0
2016-11-23T03:52:44.219Z,0
2016-11-23T03:53:44.201Z,0
2016-11-23T03:54:44.189Z,0
2016-11-23T03:55:44.493Z,0
2016-11-23T03:56:44.159Z,0
2016-11-23T03:57:44.139Z,0
2016-11-23T03:58:44.160Z,0
2016-11-23T03:59:44.425Z,0
2016-11-23T04:00:44.450Z,0
2016-11-23T04:01:44.089Z,0
2016-11-23T04:02:44.075Z,0
2016-11-23T04:03:44.691Z,0
2016-11-23T04:04:44.368Z,0
2016-11-23T04:05:44.039Z,0
2016-11-23T04:06:44.331Z,0
2016-11-23T04:07:43.997Z,0
2016-11-23T04:08:44.325Z,0
2016-11-23T04:09:43.965Z,0
2016-11-23T04:10:44.586Z,0
2016-11-23T04:11:43.944Z,0
2016-11-23T04:12:43.926Z,0
2016-11-23T04:13:43.910Z,0
2016-11-23T04:14:43.892Z,0
2016-11-23T04:15:44.197Z,0
2016-11-23T04:16:43.866Z,0
2016-11-23T04:17:43.853Z,0
2016-11-23T04:18:44.152Z,0
2016-11-23T04:19:43.824Z,0
2016-11-23T04:20:43.860Z,0
2016-11-23T04:21:43.804Z,0
2016-11-23T04:22:43.878Z,0
2016-11-23T04:23:43.793Z,0
2016-11-23T04:24:43.744Z,0
2016-11-23T04:25:43.756Z,0
2016-11-23T04:26:43.721Z,0
2016-11-23T04:27:43.731Z,0
2016-11-23T04:28:43.717Z,0
2016-11-23T04:29:43.730Z,0
2016-11-23T04:30:43.660Z,0
2016-11-23T04:31:44.301Z,0
2016-11-23T04:32:43.644Z,0
2016-11-23T04:33:43.624Z,0
2016-11-23T04:34:43.911Z,0
2016-11-23T04:35:43.593Z,0
2016-11-23T04:36:43.886Z,0
2016-11-23T04:37:43.557Z,0
2016-11-23T04:38:43.536Z,0
2016-11-23T04:39:43.529Z,0
2016-11-23T04:40:44.141Z,0
2016-11-23T04:41:43.819Z,0
2016-11-23T04:42:43.494Z,0
2016-11-23T04:43:43.506Z,0
2016-11-23T04:44:43.459Z,0
2016-11-23T04:45:43.754Z,0
2016-11-23T04:46:43.421Z,0
2016-11-23T04:47:43.410Z,0
2016-11-23T04:48:43.713Z,0
2016-11-23T04:49:43.403Z,0
2016-11-23T04:50:43.394Z,0
2016-11-23T04:51:43.349Z,0
2016-11-23T04:52:43.645Z,0
2016-11-23T04:53:43.629Z,0
2016-11-23T04:54:43.324Z,0
2016-11-23T04:55:43.281Z,0
2016-11-23T04:56:43.269Z,0
2016-11-23T04:57:43.261Z,0
2016-11-23T04:58:43.235Z,0
2016-11-23T04:59:43.248Z,0
2016-11-23T05:00:43.208Z,0
2016-11-23T05:01:43.195Z,0
2016-11-23T05:02:43.494Z,0
2016-11-23T05:03:43.160Z,0
2016-11-23T05:04:43.147Z,0
2016-11-23T05:05:43.174Z,0
2016-11-23T05:06:43.122Z,0
2016-11-23T05:07:43.107Z,0
2016-11-23T05:08:43.415Z,0
2016-11-23T05:09:43.382Z,0
2016-11-23T05:10:43.054Z,0
2016-11-23T05:11:43.053Z,0
2016-11-23T05:12:43.339Z,0
2016-11-23T05:13:43.009Z,0
2016-11-23T05:14:42.991Z,0
2016-11-23T05:15:42.976Z,0
2016-11-23T05:16:42.960Z,0
2016-11-23T05:17:42.976Z,0
2016-11-23T05:18:42.933Z,0
2016-11-23T05:19:42.908Z,0
2016-11-23T05:20:42.899Z,0
2016-11-23T05:21:42.880Z,0
2016-11-23T05:22:42.891Z,0
2016-11-23T05:23:42.854Z,0
2016-11-23T05:24:42.837Z,0
2016-11-23T05:25:42.815Z,0
2016-11-23T05:26:43.120Z,0
2016-11-23T05:27:42.781Z,0
2016-11-23T05:28:42.773Z,0
2016-11-23T05:29:42.776Z,0
2016-11-23T05:30:43.059Z,0
2016-11-23T05:31:42.727Z,0
2016-11-23T05:32:43.038Z,0
2016-11-23T05:33:42.690Z,0
2016-11-23T05:34:42.993Z,0
2016-11-23T05:35:42.662Z,0
2016-11-23T05:36:42.964Z,0
2016-11-23T05:37:43.266Z,0
2016-11-23T05:38:42.619Z,0
2016-11-23T05:39:42.907Z,0
2016-11-23T05:40:42.581Z,0
2016-11-23T05:41:42.887Z,0
2016-11-23T05:42:42.561Z,0
2016-11-23T05:43:42.548Z,0
2016-11-23T05:44:42.951Z,0
2016-11-23T05:45:42.511Z,0
2016-11-23T05:46:42.492Z,0
2016-11-23T05:47:42.477Z,0
2016-11-23T05:48:42.465Z,0
2016-11-23T05:49:42.436Z,0
2016-11-23T05:50:42.432Z,0
2016-11-23T05:51:42.413Z,0
2016-11-23T05:52:42.436Z,0
2016-11-23T05:53:42.739Z,0
2016-11-23T05:54:42.371Z,0
2016-11-23T05:55:42.348Z,0
2016-11-23T05:56:42.340Z,0
2016-11-23T05:57:42.321Z,0
2016-11-23T05:58:42.300Z,0
2016-11-23T05:59:42.285Z,0
2016-11-23T06:00:42.593Z,0
2016-11-23T06:01:42.263Z,0
2016-11-23T06:02:42.231Z,0
2016-11-23T06:03:42.226Z,0
2016-11-23T06:04:42.201Z,0
2016-11-23T06:05:42.823Z,0
2016-11-23T06:06:42.168Z,0
2016-11-23T06:07:42.149Z,0
2016-11-23T06:08:42.452Z,0
2016-11-23T06:09:42.134Z,0
2016-11-23T06:10:42.445Z,0
2016-11-23T06:11:42.402Z,0
2016-11-23T06:12:42.071Z,0
2016-11-23T06:13:42.068Z,0
2016-11-23T06:14:42.043Z,0
2016-11-23T06:15:42.025Z,0
2016-11-23T06:16:42.009Z,0
2016-11-23T06:17:41.991Z,0
2016-11-23T06:18:42.294Z,0
2016-11-23T06:19:41.958Z,0
2016-11-23T06:20:42.256Z,0
2016-11-23T06:21:42.291Z,0
2016-11-23T06:22:42.541Z,0
2016-11-23T06:23:41.925Z,0
2016-11-23T06:24:41.878Z,0
2016-11-23T06:25:41.864Z,0
2016-11-23T06:26:42.169Z,0
2016-11-23T06:27:42.152Z,0
2016-11-23T06:28:41.822Z,0
2016-11-23T06:29:41.803Z,0
2016-11-23T06:30:41.781Z,0
2016-11-23T06:31:41.769Z,0
2016-11-23T06:32:42.095Z,0
2016-11-23T06:33:42.365Z,0
2016-11-23T06:34:42.038Z,0
2016-11-23T06:35:41.706Z,0
2016-11-23T06:36:41.683Z,0
2016-11-23T06:37:41.673Z,0
2016-11-23T06:38:41.654Z,0
2016-11-23T06:39:41.638Z,0
2016-11-23T06:40:41.632Z,0
2016-11-23T06:41:41.623Z,0
2016-11-23T06:42:41.596Z,0
2016-11-23T06:43:41.886Z,0
2016-11-23T06:44:41.563Z,0
2016-11-23T06:45:41.541Z,0
2016-11-23T06:46:41.526Z,0
2016-11-23T06:47:41.501Z,0
2016-11-23T06:48:41.491Z,0
2016-11-23T06:49:41.808Z,0
2016-11-23T06:50:41.454Z,0
2016-11-23T06:51:41.447Z,0
2016-11-23T06:52:41.741Z,0
2016-11-23T06:53:41.412Z,0
2016-11-23T06:54:41.710Z,0
2016-11-23T06:55:41.379Z,0
2016-11-23T06:56:41.361Z,0
2016-11-23T06:57:41.357Z,0
2016-11-23T06:58:41.349Z,0
2016-11-23T06:59:41.424Z,0
2016-11-23T07:00:41.616Z,0
2016-11-23T07:01:41.958Z,0
2016-11-23T07:02:41.580Z,0
2016-11-23T07:03:41.251Z,0
2016-11-23T07:04:41.230Z,0
2016-11-23T07:05:41.531Z,0
2016-11-23T07:06:41.511Z,0
2016-11-23T07:07:41.868Z,5
2016-11-23T07:08:41.200Z,5
2016-11-23T07:09:41.151Z,5
2016-11-23T07:10:41.144Z,5
2016-11-23T07:11:41.144Z,5
2016-11-23T07:12:41.104Z,5
2016-11-23T07:13:41.111Z,5
2016-11-23T07:14:41.388Z,5
2016-11-23T07:15:41.079Z,5
2016-11-23T07:16:41.428Z,5
2016-11-23T07:17:41.031Z,5
2016-11-23T07:18:41.330Z,5
2016-11-23T07:19:40.983Z,5
2016-11-23T07:20:41.284Z,5
2016-11-23T07:21:41.647Z,10
2016-11-23T07:22:41.257Z,10
2016-11-23T07:23:40.952Z,10
2016-11-23T07:24:41.236Z,10
2016-11-23T07:25:40.891Z,10
2016-11-23T07:26:40.880Z,10
2016-11-23T07:27:40.859Z,10
2016-11-23T07:28:40.843Z,10
2016-11-23T07:29:40.822Z,10
2016-11-23T07:30:40.808Z,15
2016-11-23T07:31:40.837Z,15
2016-11-23T07:32:41.093Z,15
2016-11-23T07:33:40.757Z,15
2016-11-23T07:34:40.742Z,15
2016-11-23T07:35:41.040Z,15
2016-11-23T07:36:41.028Z,15
2016-11-23T07:37:40.697Z,20
2016-11-23T07:38:40.685Z,20
2016-11-23T07:39:40.659Z,20
2016-11-23T07:40:40.656Z,20
2016-11-23T07:41:40.630Z,20
2016-11-23T07:42:40.663Z,20
2016-11-23T07:43:40.597Z,20
2016-11-23T07:44:40.579Z,25
2016-11-23T07:45:40.760Z,25
2016-11-23T07:46:40.547Z,25
2016-11-23T07:47:40.532Z,25
2016-11-23T07:48:40.831Z,25
2016-11-23T07:49:40.503Z,30
2016-11-23T07:50:40.482Z,30
2016-11-23T07:51:40.461Z,30
2016-11-23T07:52:40.766Z,30
2016-11-23T07:53:40.431Z,30
2016-11-23T07:54:40.417Z,30
2016-11-23T07:55:40.403Z,35
2016-11-23T07:56:40.397Z,35
2016-11-23T07:57:40.728Z,35
2016-11-23T07:58:40.681Z,35
2016-11-23T07:59:40.343Z,35
2016-11-23T08:00:40.379Z,35
2016-11-23T08:01:40.623Z,35
2016-11-23T08:02:40.292Z,35
2016-11-23T08:03:40.273Z,35
2016-11-23T08:04:40.572Z,40
2016-11-23T08:05:40.561Z,40
2016-11-23T08:06:40.224Z,40
2016-11-23T08:07:40.216Z,40
2016-11-23T08:08:40.193Z,40
2016-11-23T08:09:40.497Z,45
2016-11-23T08:10:40.494Z,45
2016-11-23T08:11:40.459Z,45
2016-11-23T08:12:40.148Z,45
2016-11-23T08:13:40.116Z,45
2016-11-23T08:14:40.101Z,50
2016-11-23T08:15:40.087Z,50
2016-11-23T08:16:40.070Z,50
2016-11-23T08:17:40.366Z,50
2016-11-23T08:18:40.349Z,50
2016-11-23T08:19:40.331Z,50
2016-11-23T08:20:40.004Z,50
2016-11-23T08:21:40.349Z,50
2016-11-23T08:22:39.964Z,50
2016-11-23T08:23:39.952Z,50
2016-11-23T08:24:39.936Z,50
2016-11-23T08:25:39.946Z,50
2016-11-23T08:26:39.902Z,50
2016-11-23T08:27:39.891Z,50
2016-11-23T08:28:39.877Z,55
2016-11-23T08:29:39.855Z,55
2016-11-23T08:30:39.847Z,60
2016-11-23T08:31:39.832Z,60
2016-11-23T08:32:39.825Z,60
2016-11-23T08:33:39.796Z,60
2016-11-23T08:34:39.780Z,60
2016-11-23T08:35:39.768Z,60
2016-11-23T08:36:39.795Z,65
2016-11-23T08:37:39.733Z,65
2016-11-23T08:38:40.044Z,65
2016-11-23T08:39:40.329Z,65
2016-11-23T08:40:40.004Z,65
2016-11-23T08:41:39.674Z,65
2016-11-23T08:42:39.973Z,70
2016-11-23T08:43:39.640Z,70
2016-11-23T08:44:39.942Z,70
2016-11-23T08:45:39.617Z,70
2016-11-23T08:46:39.602Z,75
2016-11-23T08:47:39.575Z,75
2016-11-23T08:48:39.565Z,75
2016-11-23T08:49:39.546Z,70
2016-11-23T08:50:39.534Z,70
2016-11-23T08:51:39.517Z,70
2016-11-23T08:52:39.509Z,70
2016-11-23T08:53:39.483Z,70
2016-11-23T08:54:39.466Z,70
2016-11-23T08:55:39.466Z,70
2016-11-23T08:56:39.755Z,70
2016-11-23T08:57:39.426Z,70
2016-11-23T08:58:39.418Z,70
2016-11-23T08:59:39.708Z,70
2016-11-23T09:00:39.737Z,70
2016-11-23T09:01:39.364Z,75
2016-11-23T09:02:39.360Z,75
2016-11-23T09:03:39.337Z,75
2016-11-23T09:04:39.321Z,75
2016-11-23T09:05:39.625Z,75
2016-11-23T09:06:39.609Z,80
2016-11-23T09:07:39.276Z,80
2016-11-23T09:08:39.584Z,80
2016-11-23T09:09:39.566Z,80
2016-11-23T09:10:39.553Z,80
2016-11-23T09:11:39.209Z,85
2016-11-23T09:12:39.206Z,85
2016-11-23T09:13:39.188Z,85
2016-11-23T09:14:39.169Z,85
2016-11-23T09:15:39.465Z,90
2016-11-23T09:16:39.139Z,90
2016-11-23T09:17:39.126Z,95
2016-11-23T09:18:39.738Z,90
2016-11-23T09:19:39.096Z,90
2016-11-23T09:20:39.074Z,95
2016-11-23T09:21:39.073Z,95
2016-11-23T09:22:39.052Z,95
2016-11-23T09:23:39.355Z,95
2016-11-23T09:24:39.333Z,95
2016-11-23T09:25:39.012Z,95
2016-11-23T09:26:38.994Z,100
2016-11-23T09:27:39.003Z,100
2016-11-23T09:28:38.965Z,105
2016-11-23T09:29:38.949Z,105
2016-11-23T09:30:39.257Z,105
2016-11-23T09:31:38.928Z,105
2016-11-23T09:32:38.901Z,110
2016-11-23T09:33:39.213Z,110
2016-11-23T09:34:38.899Z,110
2016-11-23T09:35:38.867Z,110
2016-11-23T09:36:39.167Z,115
2016-11-23T09:37:38.841Z,115
2016-11-23T09:38:38.817Z,120
2016-11-23T09:39:38.805Z,120
2016-11-23T09:40:38.786Z,125
2016-11-23T09:41:38.772Z,125
2016-11-23T09:42:38.766Z,130
2016-11-23T09:43:39.115Z,130
2016-11-23T09:44:38.724Z,130
2016-11-23T09:45:38.924Z,135
2016-11-23T09:46:38.700Z,135
2016-11-23T09:47:39.323Z,135
2016-11-23T09:48:38.676Z,135
2016-11-23T09:49:38.654Z,140
2016-11-23T09:50:38.965Z,140
2016-11-23T09:51:38.639Z,140
2016-11-23T09:52:38.932Z,140
2016-11-23T09:53:38.917Z,145
2016-11-23T09:54:38.904Z,145
2016-11-23T09:55:38.590Z,145
2016-11-23T09:56:38.559Z,140
2016-11-23T09:57:38.546Z,140
2016-11-23T09:58:38.538Z,140
2016-11-23T09:59:38.530Z,140
2016-11-23T10:00:38.508Z,140
2016-11-23T10:01:38.490Z,145
2016-11-23T10:02:38.480Z,145
2016-11-23T10:03:38.469Z,145
2016-11-23T10:04:38.783Z,150
2016-11-23T10:05:38.450Z,155
2016-11-23T10:06:38.437Z,150
2016-11-23T10:07:38.412Z,155
2016-11-23T10:08:38.439Z,155
2016-11-23T10:09:38.380Z,160
2016-11-23T10:10:38.385Z,165
2016-11-23T10:11:38.356Z,165
2016-11-23T10:12:38.655Z,170
2016-11-23T10:13:38.331Z,175
2016-11-23T10:14:38.329Z,175
2016-11-23T10:15:38.314Z,175
2016-11-23T10:16:38.924Z,180
2016-11-23T10:17:38.297Z,185
2016-11-23T10:18:38.279Z,185
2016-11-23T10:19:38.263Z,190
2016-11-23T10:20:38.881Z,190
2016-11-23T10:21:38.242Z,200
2016-11-23T10:22:38.226Z,210
2016-11-23T10:23:38.838Z,215
2016-11-23T10:24:38.197Z,235
2016-11-23T10:25:38.209Z,255
2016-11-23T10:26:38.184Z,260
2016-11-23T10:27:38.160Z,215
2016-11-23T10:28:38.145Z,210
2016-11-23T10:29:38.448Z,205
2016-11-23T10:30:38.112Z,200
2016-11-23T10:31:38.104Z,195
2016-11-23T10:32:38.082Z,190
2016-11-23T10:33:38.078Z,190
2016-11-23T10:34:38.695Z,185
2016-11-23T10:35:38.058Z,185
2016-11-23T10:36:38.049Z,190
2016-11-23T10:37:38.029Z,190
2016-11-23T10:38:38.024Z,195
2016-11-23T10:39:38.322Z,195
2016-11-23T10:40:38.314Z,195
2016-11-23T10:41:37.984Z,195
2016-11-23T10:42:37.975Z,210
2016-11-23T10:43:37.955Z,225
2016-11-23T10:44:37.940Z,230
2016-11-23T10:45:38.249Z,220
2016-11-23T10:46:37.926Z,235
2016-11-23T10:47:37.915Z,225
2016-11-23T10:48:38.216Z,220
2016-11-23T10:49:37.886Z,210
2016-11-23T10:50:37.886Z,210
2016-11-23T10:51:37.866Z,205
2016-11-23T10:52:37.845Z,180
2016-11-23T10:53:37.843Z,180
2016-11-23T10:54:37.835Z,180
2016-11-23T10:55:37.816Z,180
2016-11-23T10:56:37.806Z,175
2016-11-23T10:57:37.792Z,180
2016-11-23T10:58:38.096Z,180
2016-11-23T10:59:38.089Z,185
2016-11-23T11:00:38.078Z,190
2016-11-23T11:01:37.749Z,185
2016-11-23T11:02:37.734Z,185
2016-11-23T11:03:37.725Z,185
2016-11-23T11:04:37.714Z,180
2016-11-23T11:05:37.704Z,180
2016-11-23T11:06:37.688Z,175
2016-11-23T11:07:37.679Z,175
2016-11-23T11:08:37.669Z,175
2016-11-23T11:09:37.974Z,180
2016-11-23T11:10:37.646Z,175
2016-11-23T11:11:37.949Z,160
2016-11-23T11:12:37.616Z,160
2016-11-23T11:13:37.938Z,165
2016-11-23T11:14:37.601Z,165
2016-11-23T11:15:37.588Z,160
2016-11-23T11:16:37.575Z,160
2016-11-23T11:17:37.885Z,160
2016-11-23T11:18:37.874Z,160
2016-11-23T11:19:37.546Z,155
2016-11-23T11:20:37.577Z,145
2016-11-23T11:21:37.524Z,135
2016-11-23T11:22:37.505Z,130
2016-11-23T11:23:37.494Z,130
2016-11-23T11:24:37.496Z,130
2016-11-23T11:25:38.156Z,130
2016-11-23T11:26:37.780Z,135
2016-11-23T11:27:37.766Z,140
2016-11-23T11:28:37.748Z,150
2016-11-23T11:29:37.431Z,160
2016-11-23T11:30:37.418Z,170
2016-11-23T11:31:37.400Z,165
2016-11-23T11:32:37.715Z,165
2016-11-23T11:33:37.721Z,165
2016-11-23T11:34:37.680Z,170
2016-11-23T11:35:37.351Z,175
2016-11-23T11:36:37.660Z,175
2016-11-23T11:37:37.648Z,180
2016-11-23T11:38:37.322Z,180
2016-11-23T11:39:37.313Z,185
2016-11-23T11:40:37.292Z,180
2016-11-23T11:41:37.283Z,170
2016-11-23T11:42:37.278Z,160
2016-11-23T11:43:37.278Z,155
2016-11-23T11:44:37.251Z,150
2016-11-23T11:45:37.761Z,155
2016-11-23T11:46:37.222Z,160
2016-11-23T11:47:37.211Z,170
2016-11-23T11:48:37.253Z,180
2016-11-23T11:49:37.196Z,195
2016-11-23T11:50:37.490Z,205
2016-11-23T11:51:37.484Z,210
2016-11-23T11:52:37.162Z,200
2016-11-23T11:53:37.144Z,185
2016-11-23T11:54:37.447Z,175
2016-11-23T11:55:37.122Z,175
2016-11-23T11:56:37.102Z,175
2016-11-23T11:57:37.100Z,160
2016-11-23T11:58:37.088Z,145
2016-11-23T11:59:37.088Z,140
2016-11-23T12:00:37.701Z,135
2016-11-23T12:01:37.054Z,145
2016-11-23T12:02:37.090Z,140
2016-11-23T12:03:37.035Z,135
2016-11-23T12:04:37.328Z,135
2016-11-23T12:05:37.008Z,135
2016-11-23T12:06:37.008Z,135
2016-11-23T12:07:36.984Z,140
2016-11-23T12:08:36.996Z,140
2016-11-23T12:09:37.278Z,140
2016-11-23T12:10:36.948Z,145
2016-11-23T12:11:36.996Z,145
2016-11-23T12:12:37.235Z,145
2016-11-23T12:13:36.914Z,145
2016-11-23T12:14:36.898Z,145
2016-11-23T12:15:36.893Z,145
2016-11-23T12:16:36.876Z,145
2016-11-23T12:17:36.923Z,145
2016-11-23T12:18:37.172Z,150
2016-11-23T12:19:36.896Z,165
2016-11-23T12:20:36.958Z,225
2016-11-23T12:21:37.261Z,230
2016-11-23T12:22:37.246Z,175
2016-11-23T12:23:36.843Z,185
2016-11-23T12:24:37.503Z,195
2016-11-23T12:25:37.094Z,175
2016-11-23T12:26:36.820Z,180
2016-11-23T12:27:36.749Z,190
2016-11-23T12:28:36.740Z,205
2016-11-23T12:29:36.751Z,215
2016-11-23T12:30:37.052Z,215
2016-11-23T12:31:37.047Z,215
2016-11-23T12:32:36.711Z,205
2016-11-23T12:33:36.689Z,200
2016-11-23T12:34:36.681Z,180
2016-11-23T12:35:36.668Z,170
2016-11-23T12:36:36.972Z,185
2016-11-23T12:37:36.649Z,165
2016-11-23T12:38:36.636Z,205
2016-11-23T12:39:36.638Z,195
2016-11-23T12:40:36.929Z,180
2016-11-23T12:41:36.598Z,175
2016-11-23T12:42:36.591Z,180
2016-11-23T12:43:36.586Z,195
2016-11-23T12:44:36.578Z,205
2016-11-23T12:45:36.578Z,210
2016-11-23T12:46:37.199Z,220
2016-11-23T12:47:36.539Z,220
2016-11-23T12:48:36.530Z,225
2016-11-23T12:49:36.520Z,230
2016-11-23T12:50:36.510Z,280
2016-11-23T12:51:36.510Z,260
2016-11-23T12:52:37.112Z,200
2016-11-23T12:53:36.478Z,185
2016-11-23T12:54:36.787Z,180
2016-11-23T12:55:36.461Z,170
2016-11-23T12:56:36.451Z,170
2016-11-23T12:57:36.430Z,175
2016-11-23T12:58:36.743Z,185
2016-11-23T12:59:36.421Z,200
2016-11-23T13:00:36.397Z,190
2016-11-23T13:01:36.398Z,185
2016-11-23T13:02:36.389Z,185
2016-11-23T13:03:36.689Z,180
2016-11-23T13:04:36.681Z,175
2016-11-23T13:05:36.347Z,170
2016-11-23T13:06:36.661Z,165
2016-11-23T13:07:36.330Z,160
2016-11-23T13:08:36.323Z,160
2016-11-23T13:09:36.314Z,150
2016-11-23T13:10:36.299Z,145
2016-11-23T13:11:36.290Z,145
2016-11-23T13:12:36.608Z,150
2016-11-23T13:13:36.589Z,150
2016-11-23T13:14:36.272Z,155
2016-11-23T13:15:36.257Z,150
2016-11-23T13:16:36.236Z,145
2016-11-23T13:17:36.544Z,140
2016-11-23T13:18:36.220Z,130
2016-11-23T13:19:36.216Z,120
2016-11-23T13:20:36.516Z,115
2016-11-23T13:21:36.196Z,115
2016-11-23T13:22:36.181Z,115
2016-11-23T13:23:36.170Z,115
2016-11-23T13:24:36.157Z,115
2016-11-23T13:25:36.162Z,115
2016-11-23T13:26:36.469Z,115
2016-11-23T13:27:36.129Z,125
2016-11-23T13:28:36.459Z,135
2016-11-23T13:29:36.161Z,125
2016-11-23T13:30:36.410Z,120
2016-11-23T13:31:36.142Z,120
2016-11-23T13:32:36.096Z,115
2016-11-23T13:33:36.691Z,115
2016-11-23T13:34:36.367Z,115
2016-11-23T13:35:36.054Z,130
2016-11-23T13:36:36.028Z,145
2016-11-23T13:37:36.068Z,160
2016-11-23T13:38:36.004Z,170
2016-11-23T13:39:36.316Z,155
2016-11-23T13:40:35.985Z,150
2016-11-23T13:41:36.294Z,145
2016-11-23T13:42:36.279Z,150
2016-11-23T13:43:36.275Z,150
2016-11-23T13:44:35.937Z,150
2016-11-23T13:45:36.136Z,155
2016-11-23T13:46:35.916Z,155
2016-11-23T13:47:35.914Z,150
2016-11-23T13:48:35.923Z,145
2016-11-23T13:49:36.206Z,140
2016-11-23T13:50:36.195Z,140
2016-11-23T13:51:35.863Z,140
2016-11-23T13:52:36.173Z,140
2016-11-23T13:53:35.848Z,140
2016-11-23T13:54:35.839Z,145
2016-11-23T13:55:35.823Z,145
2016-11-23T13:56:35.813Z,145
2016-11-23T13:57:35.835Z,135
2016-11-23T13:58:36.138Z,130
2016-11-23T13:59:36.105Z,125
2016-11-23T14:00:35.776Z,115
2016-11-23T14:01:35.761Z,105
2016-11-23T14:02:35.751Z,100
2016-11-23T14:03:35.736Z,90
2016-11-23T14:04:35.724Z,85
2016-11-23T14:05:35.717Z,85
2016-11-23T14:06:36.038Z,90
2016-11-23T14:07:35.700Z,80
2016-11-23T14:08:35.684Z,80
2016-11-23T14:09:35.668Z,85
2016-11-23T14:10:35.662Z,85
2016-11-23T14:11:35.643Z,80
2016-11-23T14:12:36.268Z,80
2016-11-23T14:13:35.944Z,80
2016-11-23T14:14:36.283Z,80
2016-11-23T14:15:35.594Z,85
2016-11-23T14:16:35.589Z,85
2016-11-23T14:17:35.895Z,85
2016-11-23T14:18:35.573Z,80
2016-11-23T14:19:35.558Z,80
2016-11-23T14:20:35.554Z,80
2016-11-23T14:21:35.847Z,85